Time;durP1;ratioP1;P1;durP2;ratioP2;P2;SDS_P1;SDS_P2;PMS_P1;PMS_P2;Temp;Humidity;BMP_temperature;BMP_pressure;BME280_temperature;BME280_humidity;BME280_pressure;Samples;Min_cycle;Max_cycle;Signal;HPM_P1;HPM_P2
2021/12/12 00:01:50;;;;;;;32.20;22.20;;;3.10;99.90;;;;;;4876713;29;20560;-73
2021/12/12 00:04:20;;;;;;;29.07;23.60;;;3.10;99.90;;;;;;4876661;29;20235;-75
2021/12/12 00:06:55;;;;;;;29.17;21.77;;;3.10;99.90;;;;;;4876983;29;20188;-75
2021/12/12 00:09:27;;;;;;;30.13;22.63;;;3.10;99.90;;;;;;4883013;29;20191;-75
2021/12/12 00:11:54;;;;;;;30.67;22.70;;;3.00;99.90;;;;;;4895434;29;20195;-75
2021/12/12 00:14:25;;;;;;;27.80;21.57;;;3.10;99.90;;;;;;4895595;29;20203;-75
2021/12/12 00:16:53;;;;;;;30.47;22.83;;;3.10;99.90;;;;;;4910228;29;20184;-75
2021/12/12 00:19:20;;;;;;;28.53;24.40;;;3.10;99.90;;;;;;4895086;29;20310;-75
2021/12/12 00:21:49;;;;;;;30.50;23.87;;;3.10;99.90;;;;;;4895145;29;20274;-75
2021/12/12 00:24:16;;;;;;;28.30;23.30;;;3.10;99.90;;;;;;4895525;29;20211;-75
2021/12/12 00:26:44;;;;;;;26.73;22.60;;;3.10;99.90;;;;;;4894495;29;20187;-75
2021/12/12 00:29:13;;;;;;;32.60;24.67;;;3.20;99.90;;;;;;4909863;29;20184;-75
2021/12/12 00:31:38;;;;;;;30.40;24.03;;;3.20;99.90;;;;;;4909738;29;20681;-75
2021/12/12 00:34:05;;;;;;;30.03;25.40;;;3.10;99.90;;;;;;4895322;29;20208;-75
2021/12/12 00:36:34;;;;;;;30.67;23.67;;;3.20;99.90;;;;;;4895442;29;20199;-75
2021/12/12 00:39:07;;;;;;;27.67;22.60;;;3.10;99.90;;;;;;4895134;29;20195;-75
2021/12/12 00:42:14;;;;;;;30.47;23.67;;;3.10;99.90;;;;;;4895139;29;20187;-75
2021/12/12 00:44:44;;;;;;;32.13;24.93;;;3.10;99.90;;;;;;4909894;29;20564;-74
2021/12/12 00:47:11;;;;;;;31.47;25.10;;;3.20;99.90;;;;;;4894306;29;20236;-75
2021/12/12 00:49:39;;;;;;;35.17;23.83;;;3.20;99.90;;;;;;4894770;29;20184;-75
2021/12/12 00:52:07;;;;;;;29.00;24.47;;;3.20;99.90;;;;;;4895483;29;20187;-74
2021/12/12 00:54:35;;;;;;;28.47;23.57;;;3.20;99.90;;;;;;4893872;29;20224;-75
2021/12/12 00:57:04;;;;;;;30.37;24.37;;;3.20;99.90;;;;;;4895274;29;20187;-75
2021/12/12 00:59:31;;;;;;;29.23;24.40;;;3.20;99.90;;;;;;4894898;29;20252;-75
2021/12/12 01:01:58;;;;;;;30.17;23.37;;;3.20;99.90;;;;;;4896987;29;20187;-75
2021/12/12 01:04:29;;;;;;;33.17;25.30;;;3.20;99.90;;;;;;4898894;29;20208;-75
2021/12/12 01:06:58;;;;;;;32.50;24.10;;;3.20;99.90;;;;;;4897663;29;20262;-75
2021/12/12 01:09:31;;;;;;;26.07;23.27;;;3.20;99.90;;;;;;4901185;29;20552;-74
2021/12/12 01:12:02;;;;;;;31.10;24.23;;;3.30;99.90;;;;;;4918892;29;20175;-74
2021/12/12 01:14:41;;;;;;;28.27;24.47;;;3.20;99.90;;;;;;4897907;29;20238;-74
2021/12/12 01:17:18;;;;;;;28.50;24.07;;;3.20;99.90;;;;;;4912692;29;20271;-75
2021/12/12 01:19:51;;;;;;;32.73;25.57;;;3.30;99.90;;;;;;4897118;29;20612;-75
2021/12/12 01:22:28;;;;;;;28.37;24.60;;;3.30;99.90;;;;;;4898379;29;20184;-75
2021/12/12 01:24:55;;;;;;;30.93;25.40;;;3.30;99.90;;;;;;4898601;29;20248;-75
2021/12/12 01:27:21;;;;;;;31.07;24.97;;;3.30;99.90;;;;;;4897134;29;20203;-75
2021/12/12 01:29:51;;;;;;;25.17;21.30;;;3.30;99.90;;;;;;4896776;29;20184;-75
2021/12/12 01:32:29;;;;;;;27.43;22.73;;;3.30;99.90;;;;;;4896748;29;20195;-75
2021/12/12 01:34:57;;;;;;;27.23;21.90;;;3.20;99.90;;;;;;4898260;29;20220;-74
2021/12/12 01:40:08;;;;;;;28.87;22.13;;;3.20;99.90;;;;;;4897647;29;20554;-75
2021/12/12 01:42:41;;;;;;;27.10;23.53;;;3.20;99.90;;;;;;4898123;29;20221;-75
2021/12/12 01:45:19;;;;;;;27.63;22.47;;;3.20;99.90;;;;;;4898437;29;20205;-75
2021/12/12 01:47:45;;;;;;;26.20;23.23;;;3.20;99.90;;;;;;4896657;29;20183;-75
2021/12/12 01:50:17;;;;;;;29.80;24.67;;;3.20;99.90;;;;;;4896889;29;20715;-75
2021/12/12 01:52:45;;;;;;;33.13;25.57;;;3.20;99.90;;;;;;4897968;29;20228;-74
2021/12/12 01:55:35;;;;;;;28.27;24.10;;;3.20;99.90;;;;;;4895659;29;20229;-75
2021/12/12 01:58:06;;;;;;;28.63;24.27;;;3.30;99.90;;;;;;4888273;29;20272;-75
2021/12/12 02:00:38;;;;;;;30.47;23.57;;;3.30;99.90;;;;;;4896624;29;20220;-75
2021/12/12 02:03:06;;;;;;;24.67;21.63;;;3.30;99.90;;;;;;4897412;29;20668;-74
2021/12/12 02:05:33;;;;;;;26.27;22.53;;;3.30;99.90;;;;;;4896300;29;20175;-75
2021/12/12 02:08:04;;;;;;;25.10;22.17;;;3.30;99.90;;;;;;4896082;29;20187;-75
2021/12/12 02:10:36;;;;;;;26.97;22.37;;;3.30;99.90;;;;;;4896237;29;20732;-74
2021/12/12 02:13:05;;;;;;;26.07;21.10;;;3.40;99.90;;;;;;4898183;29;20190;-75
2021/12/12 02:15:34;;;;;;;22.93;19.67;;;3.40;99.90;;;;;;4915081;29;20672;-74
2021/12/12 02:18:05;;;;;;;23.00;19.13;;;3.40;99.90;;;;;;4913560;29;20248;-75
2021/12/12 02:20:40;;;;;;;27.47;20.93;;;3.40;99.90;;;;;;4896544;29;20221;-74
2021/12/12 02:36:47;;;;;;;23.47;20.97;;;3.40;99.90;;;;;;4896778;29;20565;-75
2021/12/12 02:39:15;;;;;;;26.63;22.20;;;3.30;99.90;;;;;;4911201;29;20215;-75
2021/12/12 02:41:45;;;;;;;25.70;23.07;;;3.30;99.90;;;;;;4895562;29;20610;-75
2021/12/12 02:44:11;;;;;;;23.77;21.20;;;3.30;99.90;;;;;;4896617;29;20212;-75
2021/12/12 02:46:37;;;;;;;23.07;20.67;;;3.20;99.90;;;;;;4895217;29;20300;-75
2021/12/12 02:49:22;;;;;;;24.70;22.20;;;3.20;99.90;;;;;;4896671;29;20279;-75
2021/12/12 02:51:49;;;;;;;24.87;22.43;;;3.30;99.90;;;;;;4896329;29;20195;-75
2021/12/12 02:54:15;;;;;;;24.73;19.90;;;3.30;99.90;;;;;;4896433;29;20713;-75
2021/12/12 02:56:44;;;;;;;25.67;20.90;;;3.30;99.90;;;;;;4911132;29;20180;-75
2021/12/12 02:59:13;;;;;;;19.23;15.70;;;3.20;99.90;;;;;;4896246;29;20180;-74
2021/12/12 03:01:51;;;;;;;17.17;15.33;;;3.20;99.90;;;;;;4896076;29;20180;-75
2021/12/12 03:04:17;;;;;;;21.57;15.90;;;3.20;99.90;;;;;;4902915;29;20749;-75
2021/12/12 03:06:46;;;;;;;19.63;15.23;;;3.30;99.90;;;;;;4896150;29;20189;-76
2021/12/12 03:09:21;;;;;;;19.47;15.80;;;3.30;99.90;;;;;;4895783;29;20293;-75
2021/12/12 03:11:50;;;;;;;18.17;14.73;;;3.30;99.90;;;;;;4896081;29;20325;-75
2021/12/12 03:14:17;;;;;;;18.73;16.73;;;3.30;99.90;;;;;;4895651;29;20287;-75
2021/12/12 03:16:43;;;;;;;22.37;20.17;;;3.30;99.90;;;;;;4895932;29;20191;-75
2021/12/12 03:19:09;;;;;;;27.23;21.13;;;3.30;99.90;;;;;;4896121;29;20200;-75
2021/12/12 03:21:42;;;;;;;23.10;20.20;;;3.30;99.90;;;;;;4910234;29;20184;-75
2021/12/12 03:24:38;;;;;;;21.80;19.30;;;3.30;99.90;;;;;;4894221;29;20222;-75
2021/12/12 03:27:05;;;;;;;22.00;17.83;;;3.30;99.90;;;;;;4891375;29;20188;-75
2021/12/12 03:29:31;;;;;;;24.37;16.07;;;3.30;99.90;;;;;;4894850;29;20180;-75
2021/12/12 03:32:05;;;;;;;19.90;17.00;;;3.40;99.90;;;;;;4896234;29;20229;-74
2021/12/12 03:34:35;;;;;;;19.67;17.57;;;3.40;99.90;;;;;;4896117;29;20212;-75
2021/12/12 03:37:03;;;;;;;22.73;18.97;;;3.40;99.90;;;;;;4896143;29;20202;-75
2021/12/12 03:39:34;;;;;;;20.40;18.30;;;3.40;99.90;;;;;;4895443;29;20255;-74
2021/12/12 03:42:04;;;;;;;21.23;19.23;;;3.40;99.90;;;;;;4894649;29;20687;-75
2021/12/12 03:44:33;;;;;;;23.50;18.97;;;3.40;99.90;;;;;;4895961;29;20203;-75
2021/12/12 03:47:05;;;;;;;20.10;17.93;;;3.30;99.90;;;;;;4895935;29;20202;-75
2021/12/12 03:49:33;;;;;;;20.73;17.50;;;3.30;99.90;;;;;;4895567;29;20276;-74
2021/12/12 03:51:59;;;;;;;22.40;18.13;;;3.30;99.90;;;;;;4895750;29;20184;-74
2021/12/12 03:54:24;;;;;;;23.83;18.13;;;3.30;99.90;;;;;;4931683;23;20242;-74
2021/12/12 03:56:50;;;;;;;22.83;19.67;;;3.40;99.90;;;;;;4932911;29;20185;-74
2021/12/12 03:59:16;;;;;;;21.63;19.10;;;3.40;99.90;;;;;;4934587;29;20737;-75
2021/12/12 04:01:50;;;;;;;22.20;19.30;;;3.30;99.90;;;;;;4933195;29;20603;-75
2021/12/12 04:04:21;;;;;;;19.87;17.67;;;3.30;99.90;;;;;;4932879;29;20199;-74
2021/12/12 04:06:48;;;;;;;20.33;18.20;;;3.30;99.90;;;;;;4934323;29;20586;-74
2021/12/12 04:09:16;;;;;;;21.60;19.23;;;3.30;99.90;;;;;;4933598;29;20174;-74
2021/12/12 04:11:46;;;;;;;22.03;18.73;;;3.30;99.90;;;;;;4931874;29;20193;-74
2021/12/12 04:14:13;;;;;;;20.67;18.47;;;3.20;99.90;;;;;;4933460;29;20223;-73
2021/12/12 04:16:43;;;;;;;20.67;18.00;;;3.30;99.90;;;;;;4932373;29;20273;-73
2021/12/12 04:19:10;;;;;;;21.07;18.73;;;3.20;99.90;;;;;;4933471;29;20191;-73
2021/12/12 04:21:38;;;;;;;22.67;19.87;;;3.20;99.90;;;;;;4933135;29;20179;-74
2021/12/12 04:24:04;;;;;;;20.60;18.43;;;3.20;99.90;;;;;;4933117;29;20700;-74
2021/12/12 04:26:34;;;;;;;19.33;17.27;;;3.20;99.90;;;;;;4932385;29;20329;-74
2021/12/12 04:29:07;;;;;;;19.03;15.60;;;3.20;99.90;;;;;;4948156;28;20186;-74
2021/12/12 04:31:38;;;;;;;16.63;14.93;;;3.20;99.90;;;;;;4933658;29;20190;-74
2021/12/12 04:34:05;;;;;;;17.17;15.40;;;3.20;99.90;;;;;;4932250;29;20202;-74
2021/12/12 04:36:34;;;;;;;17.30;15.53;;;3.20;99.90;;;;;;4935484;29;20293;-74
2021/12/12 04:39:19;;;;;;;18.40;14.87;;;3.20;99.90;;;;;;4937484;29;20210;-74
2021/12/12 04:41:47;;;;;;;21.23;14.77;;;3.10;99.90;;;;;;4935833;29;20178;-75
2021/12/12 04:44:18;;;;;;;20.23;16.93;;;3.10;99.90;;;;;;4937990;29;20213;-74
2021/12/12 04:49:57;;;;;;;19.17;17.17;;;2.90;99.90;;;;;;4938597;29;20191;-74
2021/12/12 04:52:37;;;;;;;17.70;15.93;;;2.90;99.90;;;;;;4935976;29;20194;-74
2021/12/12 04:55:06;;;;;;;17.37;15.50;;;2.70;99.90;;;;;;4951946;28;20289;-74
2021/12/12 04:57:56;;;;;;;26.53;16.57;;;2.60;99.90;;;;;;4937203;29;20565;-74
2021/12/12 05:00:29;;;;;;;16.93;14.63;;;2.50;99.90;;;;;;4935425;29;20224;-75
2021/12/12 05:02:57;;;;;;;15.97;14.47;;;2.30;99.90;;;;;;4935524;29;20186;-74
2021/12/12 05:05:33;;;;;;;16.90;15.00;;;2.20;99.90;;;;;;4935228;29;20198;-74
2021/12/12 05:08:07;;;;;;;23.27;21.17;;;2.10;99.90;;;;;;4936874;29;20561;-74
2021/12/12 05:11:17;;;;;;;19.13;17.53;;;2.10;99.90;;;;;;4936412;29;20217;-74
2021/12/12 05:13:55;;;;;;;19.43;10.57;;;1.90;99.90;;;;;;4941257;29;20246;-74
2021/12/12 05:16:28;;;;;;;11.87;10.67;;;1.90;99.90;;;;;;4937394;29;20213;-75
2021/12/12 05:19:03;;;;;;;21.00;19.10;;;1.90;99.90;;;;;;4942402;29;20663;-74
2021/12/12 05:21:33;;;;;;;28.57;25.97;;;1.90;99.90;;;;;;4950868;28;20197;-74
2021/12/12 05:24:05;;;;;;;21.33;19.73;;;1.90;99.90;;;;;;4936516;29;20206;-74
2021/12/12 05:26:36;;;;;;;19.47;18.00;;;1.80;99.90;;;;;;4936211;29;20192;-74
2021/12/12 05:29:17;;;;;;;18.20;16.67;;;1.80;99.90;;;;;;4935023;29;20183;-73
2021/12/12 05:31:52;;;;;;;15.33;14.13;;;1.80;99.90;;;;;;4934553;29;20284;-74
2021/12/12 05:34:20;;;;;;;14.07;12.57;;;1.80;99.90;;;;;;4917086;29;20229;-73
2021/12/12 05:36:47;;;;;;;14.03;12.80;;;1.80;99.90;;;;;;4916193;29;20648;-73
2021/12/12 05:39:15;;;;;;;12.27;11.17;;;1.70;99.90;;;;;;4931814;29;20274;-73
2021/12/12 05:41:42;;;;;;;13.77;10.43;;;1.80;99.90;;;;;;4931658;29;20678;-73
2021/12/12 05:44:08;;;;;;;12.10;9.73;;;1.80;99.90;;;;;;4917009;29;20215;-73
2021/12/12 05:46:34;;;;;;;12.13;10.40;;;1.70;99.90;;;;;;4938526;28;20639;-73
2021/12/12 05:49:04;;;;;;;14.53;9.83;;;1.70;99.90;;;;;;4935919;29;20186;-73
2021/12/12 05:51:31;;;;;;;10.40;9.40;;;1.60;99.90;;;;;;4934773;29;20188;-73
2021/12/12 05:53:57;;;;;;;10.13;9.20;;;1.70;99.90;;;;;;4935799;29;20222;-72
2021/12/12 05:56:26;;;;;;;10.30;9.33;;;1.70;99.90;;;;;;4934922;29;20179;-73
2021/12/12 05:58:52;;;;;;;10.27;9.20;;;1.70;99.90;;;;;;4934910;29;20178;-73
2021/12/12 06:01:20;;;;;;;12.90;9.10;;;1.70;99.90;;;;;;4935099;29;20298;-73
2021/12/12 06:03:47;;;;;;;10.90;9.80;;;1.60;99.90;;;;;;4950245;28;20206;-73
2021/12/12 06:06:17;;;;;;;10.90;9.00;;;1.60;99.90;;;;;;4935598;29;20678;-74
2021/12/12 06:08:45;;;;;;;9.50;8.70;;;1.50;99.90;;;;;;4934474;29;20542;-74
2021/12/12 06:11:14;;;;;;;10.70;9.70;;;1.40;99.90;;;;;;4935416;29;20326;-73
2021/12/12 06:13:41;;;;;;;11.50;10.40;;;1.30;99.90;;;;;;4950179;29;20190;-74
2021/12/12 06:16:08;;;;;;;13.30;10.57;;;1.20;99.90;;;;;;4936025;29;20191;-73
2021/12/12 06:18:36;;;;;;;12.20;10.00;;;1.10;99.90;;;;;;4937608;29;20710;-73
2021/12/12 06:21:04;;;;;;;15.37;9.73;;;1.10;99.90;;;;;;4935451;29;20568;-73
2021/12/12 06:23:30;;;;;;;11.30;9.83;;;1.00;99.90;;;;;;4935835;29;20270;-73
2021/12/12 06:25:56;;;;;;;9.97;8.93;;;1.00;99.90;;;;;;4935424;29;20187;-73
2021/12/12 06:28:28;;;;;;;10.70;9.60;;;0.90;99.90;;;;;;4935206;29;20186;-73
2021/12/12 06:30:55;;;;;;;9.60;8.70;;;0.90;99.90;;;;;;4934863;29;20191;-73
2021/12/12 06:33:21;;;;;;;10.60;9.50;;;0.80;99.90;;;;;;4950000;28;20249;-74
2021/12/12 06:35:49;;;;;;;11.30;10.43;;;0.70;99.90;;;;;;4935148;29;20209;-72
2021/12/12 06:38:16;;;;;;;12.33;11.33;;;0.70;99.90;;;;;;4933972;29;20217;-73
2021/12/12 06:40:43;;;;;;;14.57;13.53;;;0.70;99.90;;;;;;4934258;29;20220;-73
2021/12/12 06:43:11;;;;;;;14.00;12.67;;;0.70;99.90;;;;;;4934854;29;20528;-73
2021/12/12 06:45:37;;;;;;;14.33;13.23;;;0.70;99.90;;;;;;4934814;29;20285;-73
2021/12/12 06:48:06;;;;;;;14.30;13.00;;;0.60;99.90;;;;;;4934790;29;20270;-73
2021/12/12 06:50:33;;;;;;;12.50;11.50;;;0.60;99.90;;;;;;4933346;29;20276;-73
2021/12/12 06:53:00;;;;;;;13.03;11.73;;;0.60;99.90;;;;;;4934770;29;20183;-73
2021/12/12 06:55:26;;;;;;;12.37;11.17;;;0.50;99.90;;;;;;4934279;29;20221;-73
2021/12/12 06:57:52;;;;;;;11.87;10.70;;;0.50;99.90;;;;;;4933239;29;20217;-74
2021/12/12 07:00:21;;;;;;;12.03;10.93;;;0.50;99.90;;;;;;4933474;29;20221;-73
2021/12/12 07:02:48;;;;;;;13.33;12.07;;;0.40;99.90;;;;;;4933213;29;20541;-73
2021/12/12 07:05:20;;;;;;;12.43;11.33;;;0.40;99.90;;;;;;4933292;29;20236;-73
2021/12/12 07:07:48;;;;;;;11.90;10.80;;;0.40;99.90;;;;;;4934347;29;20190;-73
2021/12/12 07:10:16;;;;;;;10.63;9.60;;;0.30;99.90;;;;;;4933282;29;20189;-73
2021/12/12 07:12:44;;;;;;;12.10;10.70;;;0.30;99.90;;;;;;4933813;29;20230;-73
2021/12/12 07:15:13;;;;;;;13.17;10.17;;;0.20;99.90;;;;;;4932742;29;20975;-72
2021/12/12 07:17:41;;;;;;;12.60;11.30;;;0.20;99.90;;;;;;4935045;29;20191;-72
2021/12/12 07:20:10;;;;;;;12.23;11.10;;;0.20;99.90;;;;;;4933696;29;20232;-73
2021/12/12 07:22:37;;;;;;;12.97;11.73;;;0.20;99.90;;;;;;4946400;29;20272;-70
2021/12/12 07:25:05;;;;;;;18.90;11.33;;;0.30;99.90;;;;;;4932993;29;20199;-70
2021/12/12 07:27:31;;;;;;;12.00;10.80;;;0.20;99.90;;;;;;4933128;29;20182;-70
2021/12/12 07:29:58;;;;;;;11.67;10.43;;;0.20;99.90;;;;;;4933059;29;20193;-70
2021/12/12 07:32:27;;;;;;;12.87;11.13;;;0.20;99.90;;;;;;4932949;29;20384;-69
2021/12/12 07:34:53;;;;;;;11.23;10.13;;;0.20;99.90;;;;;;4932480;29;20571;-70
2021/12/12 07:37:20;;;;;;;12.00;10.50;;;0.20;99.90;;;;;;4932028;29;20187;-70
2021/12/12 07:39:46;;;;;;;14.13;12.80;;;0.30;99.90;;;;;;4933671;29;20210;-70
2021/12/12 07:42:15;;;;;;;13.03;11.70;;;0.30;99.90;;;;;;4932248;29;20194;-70
2021/12/12 07:44:45;;;;;;;14.23;12.63;;;0.40;99.90;;;;;;4948146;28;20199;-69
2021/12/12 07:47:13;;;;;;;16.27;12.77;;;0.50;99.90;;;;;;4948990;28;20246;-70
2021/12/12 07:49:46;;;;;;;13.43;11.37;;;0.60;99.90;;;;;;4934115;29;20210;-70
2021/12/12 07:52:20;;;;;;;13.43;12.03;;;0.70;99.90;;;;;;4934272;29;20181;-71
2021/12/12 07:54:49;;;;;;;13.03;11.73;;;0.70;99.90;;;;;;4948814;28;20227;-70
2021/12/12 07:57:17;;;;;;;12.43;11.13;;;0.80;99.90;;;;;;4932392;29;20185;-70
2021/12/12 07:59:44;;;;;;;13.20;10.27;;;1.00;99.90;;;;;;4933082;29;20262;-71
2021/12/12 08:02:12;;;;;;;16.37;13.63;;;1.00;99.90;;;;;;4932305;29;20178;-70
2021/12/12 08:04:38;;;;;;;13.20;12.00;;;1.10;99.90;;;;;;4932039;29;20207;-70
2021/12/12 08:07:09;;;;;;;13.80;11.07;;;1.30;99.90;;;;;;4933090;29;20188;-70
2021/12/12 08:09:37;;;;;;;14.87;12.70;;;1.40;99.90;;;;;;4932768;29;20191;-70
2021/12/12 08:12:04;;;;;;;13.37;11.97;;;1.60;99.90;;;;;;4931890;29;20218;-70
2021/12/12 08:14:32;;;;;;;12.43;11.03;;;1.80;99.90;;;;;;4933283;29;20233;-70
2021/12/12 08:16:58;;;;;;;14.30;11.83;;;2.00;99.90;;;;;;4933507;29;20193;-71
2021/12/12 08:19:26;;;;;;;14.37;12.97;;;2.40;99.90;;;;;;4933683;29;20210;-70
2021/12/12 08:22:07;;;;;;;14.43;12.93;;;2.70;99.90;;;;;;4932815;29;20270;-70
2021/12/12 08:24:35;;;;;;;16.63;14.97;;;2.70;99.90;;;;;;4933587;29;20211;-71
2021/12/12 08:27:04;;;;;;;27.33;25.43;;;2.80;99.90;;;;;;4933399;29;20316;-71
2021/12/12 08:29:31;;;;;;;14.40;13.07;;;3.10;99.90;;;;;;4931863;29;20183;-71
2021/12/12 08:31:58;;;;;;;15.17;14.07;;;3.30;99.90;;;;;;4933182;29;20193;-71
2021/12/12 08:34:26;;;;;;;14.17;12.13;;;3.60;99.90;;;;;;4932174;29;20216;-71
2021/12/12 08:36:54;;;;;;;9.77;8.97;;;3.80;99.90;;;;;;4931612;29;20258;-66
2021/12/12 08:39:21;;;;;;;14.70;13.57;;;4.30;99.90;;;;;;4933226;29;20198;-66
2021/12/12 08:41:49;;;;;;;16.37;15.17;;;4.50;99.90;;;;;;4932644;29;20184;-66
2021/12/12 08:44:16;;;;;;;13.17;11.97;;;5.20;99.90;;;;;;4936480;29;20290;-70
2021/12/12 08:46:46;;;;;;;25.17;23.47;;;6.10;99.90;;;;;;4936491;29;20188;-71
2021/12/12 08:49:14;;;;;;;12.57;11.57;;;6.70;99.90;;;;;;4933687;29;20196;-70
2021/12/12 08:51:48;;;;;;;14.70;13.63;;;7.50;99.90;;;;;;4932916;29;20573;-70
2021/12/12 08:54:23;;;;;;;15.83;14.20;;;8.00;99.90;;;;;;4932048;29;20225;-70
2021/12/12 08:56:55;;;;;;;9.07;8.37;;;8.50;99.90;;;;;;4934214;29;20694;-71
2021/12/12 08:59:26;;;;;;;10.07;9.17;;;9.00;99.90;;;;;;4931873;29;20183;-70
2021/12/12 09:01:56;;;;;;;8.90;8.17;;;9.70;99.90;;;;;;4932860;29;20611;-70
2021/12/12 09:04:22;;;;;;;10.27;9.43;;;9.40;99.90;;;;;;4933222;29;20265;-69
2021/12/12 09:06:55;;;;;;;11.27;10.27;;;8.70;99.90;;;;;;4932720;29;20190;-72
2021/12/12 09:09:29;;;;;;;9.90;9.10;;;8.40;99.90;;;;;;4932346;29;20200;-74
2021/12/12 09:12:32;;;;;;;12.13;11.23;;;7.70;99.90;;;;;;4933037;29;20617;-72
2021/12/12 09:15:09;;;;;;;12.67;11.67;;;7.20;99.90;;;;;;4941572;28;20709;-70
2021/12/12 09:17:57;;;;;;;14.90;13.87;;;6.70;99.90;;;;;;4933673;29;20186;-72
2021/12/12 09:20:33;;;;;;;15.33;13.93;;;6.30;99.90;;;;;;4935525;29;20217;-71
2021/12/12 09:23:21;;;;;;;10.20;9.50;;;6.10;99.90;;;;;;4936631;29;20196;-71
2021/12/12 09:25:59;;;;;;;13.17;12.03;;;6.00;99.90;;;;;;4937196;29;20766;-71
2021/12/12 09:28:34;;;;;;;10.20;9.33;;;5.80;99.90;;;;;;4936325;29;20193;-70
2021/12/12 09:31:13;;;;;;;8.30;7.70;;;5.80;99.90;;;;;;4936575;29;20188;-71
2021/12/12 09:33:56;;;;;;;8.40;7.60;;;5.60;99.90;;;;;;4951732;29;20687;-71
2021/12/12 09:36:34;;;;;;;8.40;7.60;;;5.70;99.90;;;;;;4952943;29;20574;-73
2021/12/12 09:39:07;;;;;;;7.50;6.90;;;5.90;99.90;;;;;;4955207;28;20628;-71
2021/12/12 09:41:45;;;;;;;7.00;6.60;;;6.00;99.90;;;;;;4952825;29;20189;-71
2021/12/12 09:44:54;;;;;;;8.17;7.47;;;6.10;99.90;;;;;;4936600;29;20195;-71
2021/12/12 09:47:31;;;;;;;6.67;6.27;;;6.20;99.90;;;;;;4936027;29;20228;-71
2021/12/12 09:53:23;;;;;;;7.50;6.97;;;6.30;99.90;;;;;;4936272;29;20190;-71
2021/12/12 09:56:01;;;;;;;7.97;7.40;;;6.60;99.90;;;;;;4951425;23;20268;-70
2021/12/12 09:58:45;;;;;;;8.00;7.37;;;6.80;99.90;;;;;;4917045;29;20697;-70
2021/12/12 10:01:19;;;;;;;7.80;7.20;;;6.70;99.90;;;;;;4917266;29;20226;-70
2021/12/12 10:03:47;;;;;;;7.43;6.83;;;6.70;99.90;;;;;;4916255;29;20280;-70
2021/12/12 10:06:19;;;;;;;7.47;6.87;;;6.70;99.90;;;;;;4916125;29;20183;-70
2021/12/12 10:08:57;;;;;;;8.87;8.17;;;6.80;99.90;;;;;;4916980;29;20190;-72
2021/12/12 10:12:02;;;;;;;15.03;11.50;;;6.70;99.90;;;;;;4916734;29;20193;-71
2021/12/12 10:14:33;;;;;;;8.93;8.13;;;6.70;99.90;;;;;;4924719;29;20233;-72
2021/12/12 10:17:12;;;;;;;9.40;8.60;;;6.90;99.90;;;;;;4931327;29;20187;-71
2021/12/12 10:19:41;;;;;;;9.30;8.60;;;6.80;99.90;;;;;;4915195;29;20210;-72
2021/12/12 10:22:13;;;;;;;9.03;8.17;;;6.90;99.90;;;;;;4916702;29;20246;-72
2021/12/12 10:25:09;;;;;;;13.07;11.97;;;7.00;99.90;;;;;;4916701;29;20203;-72
2021/12/12 10:27:51;;;;;;;9.00;8.30;;;7.00;99.90;;;;;;4916501;29;20193;-70
2021/12/12 10:30:43;;;;;;;9.20;8.50;;;7.00;99.90;;;;;;4916344;29;20584;-70
2021/12/12 10:33:19;;;;;;;9.40;8.60;;;6.90;99.90;;;;;;4918049;29;20195;-72
2021/12/12 10:35:53;;;;;;;9.53;8.73;;;6.80;99.90;;;;;;4916374;29;20285;-71
2021/12/12 10:38:28;;;;;;;8.90;8.03;;;6.80;99.90;;;;;;4916465;29;20284;-71
2021/12/12 10:41:09;;;;;;;8.50;7.90;;;6.90;99.90;;;;;;4915563;29;20214;-71
2021/12/12 10:43:56;;;;;;;8.00;7.40;;;6.90;99.90;;;;;;4916217;29;20183;-71
2021/12/12 10:46:33;;;;;;;7.47;6.97;;;6.80;99.90;;;;;;4916206;29;20186;-71
2021/12/12 10:49:26;;;;;;;7.63;7.03;;;6.90;99.90;;;;;;4916248;29;20179;-71
2021/12/12 10:52:01;;;;;;;7.20;6.70;;;6.90;99.90;;;;;;4915751;29;20222;-71
2021/12/12 10:54:35;;;;;;;7.70;7.10;;;6.80;99.90;;;;;;4914344;29;20738;-71
2021/12/12 10:57:07;;;;;;;8.80;8.20;;;6.80;99.90;;;;;;4916224;29;20206;-71
2021/12/12 10:59:42;;;;;;;7.30;6.80;;;6.70;99.90;;;;;;4914554;29;20585;-71
2021/12/12 11:02:13;;;;;;;7.80;7.10;;;6.60;99.90;;;;;;4915859;29;20187;-71
2021/12/12 11:04:42;;;;;;;7.17;6.67;;;6.60;99.90;;;;;;4915783;29;20683;-71
2021/12/12 11:07:22;;;;;;;6.27;5.97;;;6.60;99.90;;;;;;4915842;29;20196;-71
2021/12/12 11:09:56;;;;;;;6.47;6.07;;;6.70;99.90;;;;;;4895553;29;20195;-71
2021/12/12 11:12:35;;;;;;;8.77;8.27;;;6.80;99.90;;;;;;4896830;29;20194;-71
2021/12/12 11:15:20;;;;;;;7.13;6.63;;;6.70;99.90;;;;;;4927059;29;20212;-71
2021/12/12 11:17:58;;;;;;;8.97;8.47;;;6.70;99.90;;;;;;4896772;29;20266;-71
2021/12/12 11:20:38;;;;;;;7.57;7.07;;;6.70;99.90;;;;;;4926717;29;20219;-72
2021/12/12 11:23:15;;;;;;;7.07;6.63;;;6.90;99.90;;;;;;4929915;29;20288;-72
2021/12/12 11:25:47;;;;;;;9.10;8.57;;;6.90;99.90;;;;;;4915431;29;20203;-71
2021/12/12 11:28:21;;;;;;;10.07;9.47;;;7.00;99.90;;;;;;4915560;29;20187;-71
2021/12/12 11:30:57;;;;;;;10.00;9.50;;;7.10;99.90;;;;;;4913917;29;20220;-72
2021/12/12 11:33:26;;;;;;;10.20;9.60;;;7.20;99.90;;;;;;4915432;29;20198;-71
2021/12/12 11:35:55;;;;;;;10.33;9.83;;;7.30;99.90;;;;;;4913849;29;20198;-72
2021/12/12 11:38:46;;;;;;;10.33;9.73;;;7.50;99.90;;;;;;4915259;29;20930;-72
2021/12/12 11:41:17;;;;;;;10.43;9.73;;;7.60;99.90;;;;;;4914949;29;20537;-72
2021/12/12 11:43:57;;;;;;;9.43;8.93;;;7.60;99.90;;;;;;4915354;29;20182;-72
2021/12/12 11:46:32;;;;;;;11.00;10.40;;;7.60;99.90;;;;;;4914735;29;20185;-72
2021/12/12 11:49:11;;;;;;;13.33;12.43;;;8.00;99.90;;;;;;4915115;29;20639;-72
2021/12/12 11:51:42;;;;;;;9.23;8.50;;;8.50;99.90;;;;;;4914844;29;20179;-72
2021/12/12 11:54:27;;;;;;;9.37;8.43;;;8.90;99.90;;;;;;4913981;29;20318;-72
2021/12/12 11:57:09;;;;;;;8.10;7.50;;;9.10;99.90;;;;;;4913924;29;20190;-72
2021/12/12 11:59:41;;;;;;;7.87;7.23;;;9.10;99.90;;;;;;4914692;29;20215;-72
2021/12/12 12:02:15;;;;;;;5.50;5.20;;;8.60;99.90;;;;;;4913719;29;20274;-71
2021/12/12 12:05:12;;;;;;;5.83;5.43;;;8.30;99.90;;;;;;4914731;29;20580;-72
2021/12/12 12:07:57;;;;;;;5.73;5.43;;;8.20;99.90;;;;;;4929367;29;20242;-72
2021/12/12 12:10:34;;;;;;;5.87;5.57;;;8.30;99.90;;;;;;4914369;29;20215;-72
2021/12/12 12:13:05;;;;;;;5.60;5.30;;;8.10;99.90;;;;;;4914766;29;20186;-72
2021/12/12 12:15:47;;;;;;;15.07;13.77;;;8.10;99.90;;;;;;4914567;29;20226;-72
2021/12/12 12:18:46;;;;;;;7.97;7.30;;;8.00;99.90;;;;;;4912573;29;20187;-72
2021/12/12 12:21:15;;;;;;;6.87;6.37;;;8.10;99.90;;;;;;4904557;29;20315;-72
2021/12/12 12:26:52;;;;;;;5.80;5.37;;;8.20;99.90;;;;;;4932404;29;20196;-71
2021/12/12 12:29:21;;;;;;;13.13;11.63;;;8.20;99.90;;;;;;4948066;29;20237;-71
2021/12/12 12:32:07;;;;;;;6.80;6.40;;;8.10;99.90;;;;;;4921603;29;20274;-72
2021/12/12 12:35:11;;;;;;;8.60;7.83;;;8.30;99.90;;;;;;4912860;29;20861;-71
2021/12/12 12:38:14;;;;;;;7.57;7.07;;;8.50;99.90;;;;;;4914535;29;20254;-71
2021/12/12 12:41:17;;;;;;;8.03;7.60;;;8.80;99.90;;;;;;4914612;29;20307;-71
2021/12/12 12:44:20;;;;;;;8.93;8.33;;;8.90;99.90;;;;;;4915179;29;20246;-71
2021/12/12 12:47:23;;;;;;;8.67;8.07;;;9.00;99.90;;;;;;4896239;29;20556;-71
2021/12/12 12:50:26;;;;;;;8.53;8.03;;;8.90;99.90;;;;;;4925493;29;20688;-73
2021/12/12 12:53:32;;;;;;;7.57;7.17;;;8.80;99.90;;;;;;4926757;29;20187;-72
2021/12/12 12:56:35;;;;;;;7.93;7.43;;;8.50;99.90;;;;;;4895506;29;20248;-72
2021/12/12 12:59:26;;;;;;;7.83;7.27;;;8.30;99.90;;;;;;4906012;29;20847;-71
2021/12/12 13:02:04;;;;;;;7.67;7.30;;;8.10;99.90;;;;;;4917474;29;20193;-71
2021/12/12 13:04:39;;;;;;;7.90;7.50;;;8.10;99.90;;;;;;4917400;29;20207;-73
2021/12/12 13:07:40;;;;;;;8.83;8.33;;;8.20;99.90;;;;;;4917860;29;20197;-67
2021/12/12 13:10:08;;;;;;;7.73;7.33;;;8.40;99.90;;;;;;4917009;29;20214;-66
2021/12/12 13:12:45;;;;;;;7.80;7.33;;;8.30;99.90;;;;;;4932070;29;20171;-66
2021/12/12 13:15:34;;;;;;;7.30;6.70;;;8.20;99.90;;;;;;4933718;29;20213;-66
2021/12/12 13:18:22;;;;;;;6.53;6.07;;;7.90;99.90;;;;;;4935651;29;20647;-67
2021/12/12 13:21:09;;;;;;;7.53;7.03;;;7.80;99.90;;;;;;4936125;29;20217;-71
2021/12/12 13:23:41;;;;;;;6.60;6.30;;;7.80;99.90;;;;;;4910708;29;20274;-73
2021/12/12 13:26:15;;;;;;;6.20;5.90;;;7.80;99.90;;;;;;4916964;29;20210;-73
2021/12/12 13:29:13;;;;;;;5.43;5.23;;;7.80;99.90;;;;;;4917082;29;20567;-73
2021/12/12 13:31:58;;;;;;;5.10;4.80;;;7.80;99.90;;;;;;4916736;29;20191;-72
2021/12/12 13:34:53;;;;;;;7.50;7.10;;;7.80;99.90;;;;;;4916459;29;20211;-72
2021/12/12 13:37:27;;;;;;;9.70;9.10;;;7.70;99.90;;;;;;4915347;29;20680;-74
2021/12/12 13:40:20;;;;;;;7.47;7.07;;;7.70;99.90;;;;;;4916246;29;20348;-73
2021/12/12 13:42:56;;;;;;;5.77;5.50;;;7.70;99.90;;;;;;4916498;29;20187;-72